Time;durP1;ratioP1;P1;durP2;ratioP2;P2;SDS_P1;SDS_P2;PMS_P1;PMS_P2;Temp;Humidity;BMP_temperature;BMP_pressure;BME280_temperature;BME280_humidity;BME280_pressure;Samples;Min_cycle;Max_cycle;Signal;HPM_P1;HPM_P2
2022/08/18 00:00:13;;;;;;;;;;;;;;;23.46;73.49;96709.02;611975;232;67045;-64
2022/08/18 00:02:41;;;;;;;;;;;;;;;23.46;73.83;96713.56;611933;232;67085;-63
2022/08/18 00:05:15;;;;;;;;;;;;;;;23.45;74.30;96709.30;611928;232;65244;-63
2022/08/18 00:07:40;;;;;;;;;;;;;;;23.45;74.10;96707.41;611819;231;64717;-63
2022/08/18 00:10:07;;;;;;;;;;;;;;;23.45;73.85;96709.30;611928;232;64832;-63
2022/08/18 00:12:39;;;;;;;;;;;;;;;23.45;74.11;96709.30;611989;232;64943;-63
2022/08/18 00:15:08;;;;;;;;;;;;;;;23.45;74.06;96702.04;611902;232;67346;-63
2022/08/18 00:17:36;;;;;;;;;;;;;;;23.44;74.04;96707.72;611934;232;67080;-63
2022/08/18 00:20:06;;;;;;;;;;;;;;;23.45;74.00;96709.30;611901;232;62673;-63
2022/08/18 00:22:33;;;;;;;;;;;;;;;23.45;73.83;96711.98;611970;232;67252;-63
2022/08/18 00:25:01;;;;;;;;;;;;;;;23.44;74.38;96710.40;612011;232;64542;-63
2022/08/18 00:27:30;;;;;;;;;;;;;;;23.45;74.49;96711.98;611930;232;62736;-63
2022/08/18 00:29:59;;;;;;;;;;;;;;;23.44;74.21;96710.40;611943;232;67233;-63
2022/08/18 00:32:28;;;;;;;;;;;;;;;23.44;74.03;96715.77;611917;232;67377;-63
2022/08/18 00:34:56;;;;;;;;;;;;;;;23.44;74.46;96713.08;611935;232;64870;-63
2022/08/18 00:37:24;;;;;;;;;;;;;;;23.44;74.66;96705.03;611957;232;64867;-63
2022/08/18 00:39:53;;;;;;;;;;;;;;;23.42;74.54;96705.31;611972;232;64673;-63
2022/08/18 00:42:22;;;;;;;;;;;;;;;23.43;74.29;96714.15;611935;232;62813;-63
2022/08/18 00:44:49;;;;;;;;;;;;;;;23.43;74.47;96709.58;611806;232;67403;-64
2022/08/18 00:47:17;;;;;;;;;;;;;;;23.43;74.29;96708.78;611918;232;66946;-64
2022/08/18 00:49:46;;;;;;;;;;;;;;;23.43;74.34;96711.47;611970;232;65067;-64
2022/08/18 00:52:15;;;;;;;;;;;;;;;23.43;74.19;96711.47;611958;232;64298;-63
2022/08/18 00:54:43;;;;;;;;;;;;;;;23.43;74.09;96711.47;611888;232;67145;-63
2022/08/18 00:57:13;;;;;;;;;;;;;;;23.43;74.27;96711.47;611971;230;64923;-64
2022/08/18 00:59:42;;;;;;;;;;;;;;;23.43;74.36;96716.83;611975;232;67274;-63
2022/08/18 01:02:11;;;;;;;;;;;;;;;23.42;74.14;96721.41;611912;231;65521;-63
2022/08/18 01:04:49;;;;;;;;;;;;;;;23.42;74.34;96721.41;612007;232;62691;-63
2022/08/18 01:07:19;;;;;;;;;;;;;;;23.42;74.24;96720.61;611950;232;67111;-63
2022/08/18 01:09:48;;;;;;;;;;;;;;;23.41;74.29;96722.50;611955;232;67217;-64
2022/08/18 01:12:15;;;;;;;;;;;;;;;23.41;74.29;96719.03;611977;232;63125;-64
2022/08/18 01:14:43;;;;;;;;;;;;;;;23.41;74.31;96727.08;611990;232;67138;-64
2022/08/18 01:22:48;;;;;;;;;;;;;;;23.40;74.55;96726.26;612000;232;64990;-63
2022/08/18 01:28:03;;;;;;;;;;;;;;;23.40;74.47;96723.58;611982;232;65401;-64
2022/08/18 01:30:31;;;;;;;;;;;;;;;23.39;74.40;96726.56;611965;232;64718;-64
2022/08/18 01:32:58;;;;;;;;;;;;;;;23.39;74.35;96724.67;611972;232;65154;-64
2022/08/18 01:35:27;;;;;;;;;;;;;;;23.39;74.53;96726.56;612022;232;62759;-64
2022/08/18 01:37:54;;;;;;;;;;;;;;;23.39;74.42;96727.36;611979;232;67080;-64
2022/08/18 01:40:23;;;;;;;;;;;;;;;23.39;74.36;96729.25;611957;232;64673;-64
2022/08/18 01:42:50;;;;;;;;;;;;;;;23.39;74.30;96729.25;611984;232;64908;-64
2022/08/18 01:45:19;;;;;;;;;;;;;;;23.40;74.48;96725.47;611947;232;67172;-64
2022/08/18 01:47:47;;;;;;;;;;;;;;;23.38;74.52;96727.64;611950;232;65322;-68
2022/08/18 01:50:15;;;;;;;;;;;;;;;23.38;74.41;96728.45;612016;232;64876;-68
2022/08/18 01:52:43;;;;;;;;;;;;;;;23.38;74.51;96728.45;611948;232;67166;-68
2022/08/18 01:55:10;;;;;;;;;;;;;;;23.39;74.30;96721.99;611959;232;67100;-68
2022/08/18 01:57:43;;;;;;;;;;;;;;;23.38;74.14;96723.09;611975;232;64928;-68
2022/08/18 02:00:12;;;;;;;;;;;;;;;23.38;74.36;96716.91;611960;232;67119;-67
2022/08/18 02:02:40;;;;;;;;;;;;;;;23.38;74.08;96716.91;612018;232;64362;-67
2022/08/18 02:05:13;;;;;;;;;;;;;;;23.37;74.00;96721.48;611974;232;63002;-67
2022/08/18 02:07:40;;;;;;;;;;;;;;;23.38;73.93;96719.59;607906;232;64379;-67
2022/08/18 02:10:09;;;;;;;;;;;;;;;23.37;74.12;96721.48;612003;232;64703;-66
2022/08/18 02:12:37;;;;;;;;;;;;;;;23.37;74.07;96718.80;611955;232;62902;-67
2022/08/18 02:15:06;;;;;;;;;;;;;;;23.37;74.09;96723.37;612017;232;67223;-67
2022/08/18 02:17:38;;;;;;;;;;;;;;;23.36;74.12;96714.54;612048;232;64838;-67
2022/08/18 02:20:07;;;;;;;;;;;;;;;23.37;74.03;96721.48;611667;232;64989;-67
2022/08/18 02:22:35;;;;;;;;;;;;;;;23.36;73.77;96719.91;611965;232;66971;-66
2022/08/18 02:25:02;;;;;;;;;;;;;;;23.37;73.34;96726.84;611998;232;64572;-66
2022/08/18 02:27:30;;;;;;;;;;;;;;;23.37;73.73;96724.17;611940;232;62710;-66
2022/08/18 02:29:59;;;;;;;;;;;;;;;23.37;73.73;96726.84;612031;232;64852;-66
2022/08/18 02:32:26;;;;;;;;;;;;;;;23.37;73.91;96723.37;611958;232;67135;-66
2022/08/18 02:34:54;;;;;;;;;;;;;;;23.37;73.71;96726.84;611964;232;64888;-66
2022/08/18 02:37:21;;;;;;;;;;;;;;;23.36;73.86;96725.27;611929;232;67074;-66
2022/08/18 02:39:49;;;;;;;;;;;;;;;23.36;73.76;96725.27;611969;232;64766;-66
2022/08/18 02:42:17;;;;;;;;;;;;;;;23.37;73.94;96720.70;611990;232;62669;-66
2022/08/18 02:44:47;;;;;;;;;;;;;;;23.36;73.86;96724.48;611963;232;64900;-66
2022/08/18 02:47:19;;;;;;;;;;;;;;;23.37;73.76;96726.06;611951;232;66871;-67
2022/08/18 02:49:46;;;;;;;;;;;;;;;23.35;73.78;96715.61;611990;232;64913;-67
2022/08/18 02:52:15;;;;;;;;;;;;;;;23.35;73.80;96720.97;611976;232;67221;-67
2022/08/18 02:54:43;;;;;;;;;;;;;;;23.36;73.74;96724.48;612032;232;64727;-67
2022/08/18 02:57:11;;;;;;;;;;;;;;;23.36;73.37;96719.91;611931;232;62730;-68
2022/08/18 02:59:39;;;;;;;;;;;;;;;23.35;73.02;96720.97;611934;232;64818;-68
2022/08/18 03:02:08;;;;;;;;;;;;;;;23.36;73.06;96727.16;611900;232;67401;-68
2022/08/18 03:04:35;;;;;;;;;;;;;;;23.36;72.87;96724.48;611986;232;62826;-67
2022/08/18 03:07:04;;;;;;;;;;;;;;;23.36;72.95;96732.52;611957;232;64864;-67
2022/08/18 03:09:32;;;;;;;;;;;;;;;23.35;72.58;96725.55;611974;232;64722;-68
2022/08/18 03:12:00;;;;;;;;;;;;;;;23.35;72.66;96729.02;611929;232;65125;-68
2022/08/18 03:14:28;;;;;;;;;;;;;;;23.36;73.01;96727.95;611963;232;67089;-68
2022/08/18 03:16:55;;;;;;;;;;;;;;;23.36;72.72;96735.20;611921;232;66889;-64
2022/08/18 03:19:24;;;;;;;;;;;;;;;23.36;72.94;96737.88;611973;232;64974;-64
2022/08/18 03:21:51;;;;;;;;;;;;;;;23.34;72.75;96729.33;612026;232;64636;-64
2022/08/18 03:24:19;;;;;;;;;;;;;;;23.36;72.77;96735.20;611902;232;64710;-64
2022/08/18 03:26:47;;;;;;;;;;;;;;;23.35;72.88;96736.27;611938;232;65034;-64
2022/08/18 03:29:15;;;;;;;;;;;;;;;23.36;72.56;96737.88;611923;232;68513;-64
2022/08/18 03:31:44;;;;;;;;;;;;;;;23.34;72.82;96738.16;611962;232;66902;-64
2022/08/18 03:34:12;;;;;;;;;;;;;;;23.34;72.78;96738.16;611980;232;62692;-64
2022/08/18 03:36:40;;;;;;;;;;;;;;;23.34;72.76;96742.73;611962;232;67522;-64
2022/08/18 03:39:09;;;;;;;;;;;;;;;23.34;72.88;96732.80;611937;232;66913;-64
2022/08/18 03:41:38;;;;;;;;;;;;;;;23.34;72.86;96740.05;611939;232;62490;-64
2022/08/18 03:44:05;;;;;;;;;;;;;;;23.34;72.66;96734.69;611991;232;67033;-64
2022/08/18 03:46:33;;;;;;;;;;;;;;;23.34;72.61;96734.69;612000;232;66793;-64
2022/08/18 03:49:01;;;;;;;;;;;;;;;23.34;72.66;96742.73;611927;232;62668;-64
2022/08/18 03:51:35;;;;;;;;;;;;;;;23.33;72.75;96739.27;611918;230;67385;-64
2022/08/18 03:54:01;;;;;;;;;;;;;;;23.33;72.76;96738.47;611723;232;66849;-64
2022/08/18 03:56:32;;;;;;;;;;;;;;;23.33;72.75;96741.16;611977;232;62767;-64
2022/08/18 03:59:01;;;;;;;;;;;;;;;23.33;72.81;96741.94;611937;232;64522;-64
2022/08/18 04:01:31;;;;;;;;;;;;;;;23.33;72.60;96738.47;612006;232;65740;-64
2022/08/18 04:04:01;;;;;;;;;;;;;;;23.33;72.68;96743.83;609518;232;64978;-64
2022/08/18 04:06:30;;;;;;;;;;;;;;;23.33;72.71;96749.20;609191;233;67358;-64
2022/08/18 04:08:59;;;;;;;;;;;;;;;23.32;72.28;96747.59;609199;233;64473;-64
2022/08/18 04:11:27;;;;;;;;;;;;;;;23.32;72.48;96747.59;609204;233;65209;-64
2022/08/18 04:13:58;;;;;;;;;;;;;;;23.33;72.54;96752.67;609252;233;67012;-64
2022/08/18 04:16:26;;;;;;;;;;;;;;;23.32;72.60;96751.06;609134;233;67291;-64
2022/08/18 04:18:56;;;;;;;;;;;;;;;23.32;72.48;96758.31;609186;233;64931;-64
2022/08/18 04:21:23;;;;;;;;;;;;;;;23.32;72.41;96759.10;609176;233;67088;-64
2022/08/18 04:23:50;;;;;;;;;;;;;;;23.32;72.67;96755.63;609198;233;67006;-64
2022/08/18 04:26:19;;;;;;;;;;;;;;;23.32;72.55;96758.31;609231;233;64936;-64
2022/08/18 04:28:46;;;;;;;;;;;;;;;23.31;72.56;96759.41;609241;233;64889;-64
2022/08/18 04:31:16;;;;;;;;;;;;;;;23.31;72.62;96765.56;609227;233;64611;-64
2022/08/18 04:33:44;;;;;;;;;;;;;;;23.32;72.46;96760.99;609236;233;65045;-64
2022/08/18 04:36:13;;;;;;;;;;;;;;;23.31;72.45;96754.05;609211;231;66712;-64
2022/08/18 04:38:41;;;;;;;;;;;;;;;23.32;72.28;96766.36;609233;233;65105;-64
2022/08/18 04:41:09;;;;;;;;;;;;;;;23.33;72.24;96767.97;609235;233;64859;-64
2022/08/18 04:43:36;;;;;;;;;;;;;;;23.33;72.33;96767.97;609199;233;67479;-64
2022/08/18 04:46:05;;;;;;;;;;;;;;;23.31;72.41;96770.92;609241;233;66867;-64
2022/08/18 04:48:35;;;;;;;;;;;;;;;23.32;72.71;96760.99;609171;233;64868;-64
2022/08/18 04:51:06;;;;;;;;;;;;;;;23.32;72.62;96766.36;608949;233;64876;-64
2022/08/18 04:53:46;;;;;;;;;;;;;;;23.32;72.62;96769.03;609267;233;67118;-64
2022/08/18 04:56:25;;;;;;;;;;;;;;;23.31;72.67;96768.25;609251;233;62834;-65
2022/08/18 04:58:52;;;;;;;;;;;;;;;23.32;72.85;96771.72;609184;233;67091;-63
2022/08/18 05:01:22;;;;;;;;;;;;;;;23.32;72.83;96771.72;609098;233;64941;-64
2022/08/18 05:03:50;;;;;;;;;;;;;;;23.32;72.95;96771.72;611407;231;65106;-64
2022/08/18 05:06:19;;;;;;;;;;;;;;;23.32;72.96;96769.03;611811;232;67339;-64
2022/08/18 05:08:50;;;;;;;;;;;;;;;23.31;73.20;96770.92;611819;232;64936;-64
2022/08/18 05:11:17;;;;;;;;;;;;;;;23.32;73.16;96758.31;611087;232;65104;-63
2022/08/18 05:13:45;;;;;;;;;;;;;;;23.32;73.19;96758.31;611764;232;67173;-63
2022/08/18 05:16:13;;;;;;;;;;;;;;;23.31;73.37;96756.73;611391;232;64621;-63
2022/08/18 05:18:41;;;;;;;;;;;;;;;23.32;73.52;96767.14;611936;232;65221;-66
2022/08/18 05:21:15;;;;;;;;;;;;;;;23.32;73.39;96766.36;611977;232;65054;-68
2022/08/18 05:23:43;;;;;;;;;;;;;;;23.32;73.49;96760.99;612202;232;66663;-63
2022/08/18 05:26:13;;;;;;;;;;;;;;;23.32;73.51;96755.63;611962;230;65068;-63
2022/08/18 05:28:41;;;;;;;;;;;;;;;23.32;73.58;96755.63;611982;232;64859;-63
2022/08/18 05:31:10;;;;;;;;;;;;;;;23.32;73.50;96769.03;611935;232;65275;-63
2022/08/18 05:33:39;;;;;;;;;;;;;;;23.33;73.65;96762.61;611972;232;63866;-63
2022/08/18 05:36:08;;;;;;;;;;;;;;;23.33;73.80;96758.03;612013;232;67247;-63
2022/08/18 05:38:43;;;;;;;;;;;;;;;23.33;73.63;96751.88;611494;230;67247;-65
2022/08/18 05:41:12;;;;;;;;;;;;;;;23.33;73.66;96755.35;610731;232;64996;-63
2022/08/18 05:43:41;;;;;;;;;;;;;;;23.32;73.69;96753.73;611963;232;68066;-63
2022/08/18 05:46:10;;;;;;;;;;;;;;;23.33;73.87;96759.92;611981;232;67030;-62
2022/08/18 05:48:38;;;;;;;;;;;;;;;23.33;74.12;96758.03;612031;232;63724;-62
2022/08/18 05:51:07;;;;;;;;;;;;;;;23.33;74.21;96752.67;612043;232;66641;-62
2022/08/18 05:59:10;;;;;;;;;;;;;;;23.34;73.92;96751.57;611681;230;67363;-64
2022/08/18 06:01:41;;;;;;;;;;;;;;;23.35;73.87;96744.31;611901;230;66971;-63
2022/08/18 06:04:11;;;;;;;;;;;;;;;23.35;74.00;96749.68;609273;232;65800;-63
2022/08/18 06:06:38;;;;;;;;;;;;;;;23.34;73.83;96750.78;596092;235;67312;-66
2022/08/18 06:09:14;;;;;;;;;;;;;;;23.34;73.64;96748.09;607862;232;67259;-66
2022/08/18 06:11:42;;;;;;;;;;;;;;;23.35;73.16;96745.11;608891;233;62697;-65
2022/08/18 06:14:10;;;;;;;;;;;;;;;23.36;70.75;96756.66;609215;233;66814;-70
2022/08/18 06:16:48;;;;;;;;;;;;;;;23.37;69.66;96753.66;609115;233;66985;-69
2022/08/18 06:19:17;;;;;;;;;;;;;;;23.39;69.27;96761.42;608841;231;62694;-65
2022/08/18 06:22:02;;;;;;;;;;;;;;;23.41;69.68;96759.26;606365;233;67034;-65
2022/08/18 06:24:40;;;;;;;;;;;;;;;23.43;71.10;96757.84;608920;233;64801;-66
2022/08/18 06:27:24;;;;;;;;;;;;;;;23.47;71.67;96758.08;608866;233;70918;-63
2022/08/18 06:30:05;;;;;;;;;;;;;;;23.49;70.38;96758.59;606517;232;64730;-64
2022/08/18 06:32:55;;;;;;;;;;;;;;;23.51;70.82;96756.39;605658;234;64430;-64
2022/08/18 06:35:27;;;;;;;;;;;;;;;23.53;72.02;96753.43;605943;234;65652;-66
2022/08/18 06:41:18;;;;;;;;;;;;;;;23.54;73.29;96753.12;606189;234;38474;-65
2022/08/18 06:43:57;;;;;;;;;;;;;;;23.55;73.36;96757.41;606039;234;65143;-64
2022/08/18 06:46:42;;;;;;;;;;;;;;;23.55;73.65;96754.73;606056;234;64948;-63
2022/08/18 06:49:11;;;;;;;;;;;;;;;23.55;73.55;96749.36;606084;234;65227;-66
2022/08/18 06:51:39;;;;;;;;;;;;;;;23.56;73.52;96750.95;606033;234;65307;-64
2022/08/18 06:54:20;;;;;;;;;;;;;;;23.57;73.57;96747.19;605987;234;66802;-65
2022/08/18 06:56:49;;;;;;;;;;;;;;;23.59;73.48;96750.35;606054;234;67239;-63
2022/08/18 06:59:25;;;;;;;;;;;;;;;23.60;73.03;96754.64;606086;234;63136;-65
2022/08/18 07:01:54;;;;;;;;;;;;;;;23.62;73.08;96751.66;606019;234;67352;-65
2022/08/18 07:04:40;;;;;;;;;;;;;;;23.61;72.86;96742.81;606127;234;67099;-64
2022/08/18 07:07:14;;;;;;;;;;;;;;;23.63;72.96;96751.38;606088;234;66037;-64
2022/08/18 07:09:41;;;;;;;;;;;;;;;23.64;72.71;96747.59;606024;234;66817;-64
2022/08/18 07:12:10;;;;;;;;;;;;;;;23.66;72.70;96747.31;606060;234;66891;-64
2022/08/18 07:14:51;;;;;;;;;;;;;;;23.66;72.57;96744.63;606027;234;62989;-64
2022/08/18 07:17:21;;;;;;;;;;;;;;;23.66;71.97;96740.05;606094;234;65391;-64
2022/08/18 07:20:02;;;;;;;;;;;;;;;23.69;69.96;96749.40;605969;234;66979;-67
2022/08/18 07:22:30;;;;;;;;;;;;;;;23.70;70.61;96743.72;606031;234;64881;-68
2022/08/18 07:24:59;;;;;;;;;;;;;;;23.69;70.14;96744.83;606059;234;67217;-65
2022/08/18 07:27:43;;;;;;;;;;;;;;;23.72;68.61;96746.16;606082;234;66981;-65
2022/08/18 07:30:12;;;;;;;;;;;;;;;23.74;68.99;96752.03;606015;234;65183;-67
2022/08/18 07:32:50;;;;;;;;;;;;;;;23.75;70.96;96744.77;606148;234;64353;-65
2022/08/18 07:35:19;;;;;;;;;;;;;;;23.78;69.95;96741.49;605801;234;64743;-65
2022/08/18 07:37:54;;;;;;;;;;;;;;;23.75;69.38;96744.77;606068;233;62519;-65
2022/08/18 07:40:23;;;;;;;;;;;;;;;23.73;68.46;96739.69;606128;234;64711;-65
2022/08/18 07:42:53;;;;;;;;;;;;;;;23.72;71.04;96742.68;605973;234;66627;-65
2022/08/18 07:45:34;;;;;;;;;;;;;;;23.70;72.91;96742.93;605977;234;63040;-68
2022/08/18 07:48:06;;;;;;;;;;;;;;;23.69;72.94;96738.67;606118;234;66576;-65
2022/08/18 07:50:35;;;;;;;;;;;;;;;23.72;70.84;96743.47;606065;234;64676;-67
2022/08/18 07:53:04;;;;;;;;;;;;;;;23.72;72.25;96737.31;605510;234;63598;-64
2022/08/18 07:55:34;;;;;;;;;;;;;;;23.70;73.44;96740.25;605823;234;66814;-65
2022/08/18 07:58:03;;;;;;;;;;;;;;;23.68;73.94;96737.05;606086;234;66478;-64
2022/08/18 08:00:35;;;;;;;;;;;;;;;23.67;73.94;96736.27;605658;234;65121;-64
2022/08/18 08:03:21;;;;;;;;;;;;;;;23.68;73.81;96737.05;608835;231;67078;-64
2022/08/18 08:05:56;;;;;;;;;;;;;;;23.67;73.77;96736.27;613177;231;67050;-61
2022/08/18 08:08:31;;;;;;;;;;;;;;;23.68;73.71;96739.73;613312;231;66053;-64
2022/08/18 08:11:15;;;;;;;;;;;;;;;23.67;73.62;96736.27;613213;231;64608;-64
2022/08/18 08:13:47;;;;;;;;;;;;;;;23.66;73.62;96734.69;613231;231;64790;-64
2022/08/18 08:16:25;;;;;;;;;;;;;;;23.67;73.70;96738.95;613296;231;66007;-66
2022/08/18 08:19:10;;;;;;;;;;;;;;;23.67;73.70;96741.63;597371;237;64469;-66
2022/08/18 08:21:39;;;;;;;;;;;;;;;23.67;73.74;96736.27;613241;231;64836;-66
2022/08/18 08:24:08;;;;;;;;;;;;;;;23.67;74.03;96738.95;613323;231;62767;-66
2022/08/18 08:26:40;;;;;;;;;;;;;;;23.68;73.96;96742.42;613186;231;64534;-63
2022/08/18 08:29:09;;;;;;;;;;;;;;;23.67;74.17;96732.80;613336;231;67509;-62
2022/08/18 08:31:38;;;;;;;;;;;;;;;23.68;74.15;96742.42;613035;231;65104;-65
2022/08/18 08:34:14;;;;;;;;;;;;;;;23.68;74.12;96742.42;613280;231;67121;-63
2022/08/18 08:36:43;;;;;;;;;;;;;;;23.67;73.96;96733.58;613278;231;66798;-64
2022/08/18 08:39:13;;;;;;;;;;;;;;;23.68;74.11;96737.88;613372;231;63076;-63
2022/08/18 08:41:42;;;;;;;;;;;;;;;23.69;74.06;96738.67;613201;231;66986;-65
2022/08/18 08:44:11;;;;;;;;;;;;;;;23.68;74.11;96737.05;613164;231;72156;-65
2022/08/18 08:46:42;;;;;;;;;;;;;;;23.68;74.15;96737.88;612925;231;65852;-65
2022/08/18 08:49:11;;;;;;;;;;;;;;;23.68;74.14;96743.24;613214;231;64360;-66
2022/08/18 08:51:41;;;;;;;;;;;;;;;23.68;74.32;96732.52;612497;231;64721;-64
2022/08/18 08:54:16;;;;;;;;;;;;;;;23.69;74.29;96741.34;613321;231;64956;-64
2022/08/18 08:56:48;;;;;;;;;;;;;;;23.68;74.31;96729.83;613158;231;66840;-64
2022/08/18 08:59:17;;;;;;;;;;;;;;;23.69;74.40;96727.94;613279;231;66593;-64
2022/08/18 09:01:49;;;;;;;;;;;;;;;23.68;74.37;96726.33;613240;231;65271;-64
2022/08/18 09:04:18;;;;;;;;;;;;;;;23.68;74.40;96729.83;606098;231;67785;-64
2022/08/18 09:06:57;;;;;;;;;;;;;;;23.69;74.55;96734.09;606073;234;64334;-64
2022/08/18 09:09:43;;;;;;;;;;;;;;;23.69;74.41;96731.41;605869;234;63657;-64
2022/08/18 09:12:25;;;;;;;;;;;;;;;23.69;74.47;96720.67;605869;233;64159;-63
2022/08/18 09:14:55;;;;;;;;;;;;;;;23.68;74.59;96716.41;605767;234;66487;-63
2022/08/18 09:17:27;;;;;;;;;;;;;;;23.68;74.46;96724.46;606001;234;62953;-64
2022/08/18 09:20:08;;;;;;;;;;;;;;;23.69;74.54;96717.20;605788;232;64646;-65
2022/08/18 09:22:42;;;;;;;;;;;;;;;23.70;74.70;96713.42;605907;234;67035;-67
2022/08/18 09:25:11;;;;;;;;;;;;;;;23.69;74.74;96717.99;606028;234;65292;-69
2022/08/18 09:27:41;;;;;;;;;;;;;;;23.69;74.78;96709.95;606007;234;67064;-69
2022/08/18 09:30:11;;;;;;;;;;;;;;;23.69;74.61;96701.89;605008;234;68060;-70
2022/08/18 09:32:58;;;;;;;;;;;;;;;23.69;74.56;96701.89;605331;234;67199;-71
2022/08/18 09:35:27;;;;;;;;;;;;;;;23.71;74.52;96717.74;605955;234;67042;-64
2022/08/18 09:43:33;;;;;;;;;;;;;;;23.71;74.53;96698.96;605480;234;66584;-67
2022/08/18 09:46:03;;;;;;;;;;;;;;;23.71;74.46;96704.33;605089;234;64565;-63
2022/08/18 09:48:32;;;;;;;;;;;;;;;23.71;74.45;96698.96;606109;234;62918;-63
2022/08/18 09:51:17;;;;;;;;;;;;;;;23.76;72.96;96700.73;606090;234;67119;-64
2022/08/18 09:53:51;;;;;;;;;;;;;;;23.81;70.99;96696.07;606041;234;72518;-64
2022/08/18 09:56:23;;;;;;;;;;;;;;;23.81;70.57;96704.12;606092;234;66313;-64
2022/08/18 09:58:55;;;;;;;;;;;;;;;23.80;71.97;96694.48;598330;234;64605;-64
2022/08/18 10:01:33;;;;;;;;;;;;;;;23.79;72.73;96694.77;606125;234;66834;-64
2022/08/18 10:04:20;;;;;;;;;;;;;;;23.77;73.04;96684.36;606092;233;62679;-63
2022/08/18 10:06:49;;;;;;;;;;;;;;;23.76;72.90;96680.06;605861;234;66671;-64
2022/08/18 10:09:21;;;;;;;;;;;;;;;23.76;72.94;96684.64;606104;234;64803;-66
2022/08/18 10:11:59;;;;;;;;;;;;;;;23.76;73.04;96679.27;605670;234;65066;-64
2022/08/18 10:14:35;;;;;;;;;;;;;;;23.75;73.13;96666.96;606604;232;67040;-64
2022/08/18 10:17:04;;;;;;;;;;;;;;;23.76;73.14;96671.22;601594;234;66807;-64
2022/08/18 10:19:39;;;;;;;;;;;;;;;23.76;73.16;96676.59;608791;232;65005;-64
2022/08/18 10:22:08;;;;;;;;;;;;;;;23.76;73.22;96668.54;606238;233;66846;-64
2022/08/18 10:24:37;;;;;;;;;;;;;;;23.77;73.15;96670.16;606603;234;66811;-64
2022/08/18 10:27:06;;;;;;;;;;;;;;;23.75;72.92;96666.96;606634;234;62824;-65
2022/08/18 10:29:44;;;;;;;;;;;;;;;23.76;72.95;96669.33;606608;234;66870;-64
2022/08/18 10:32:16;;;;;;;;;;;;;;;23.77;73.10;96675.52;606688;234;66298;-64
2022/08/18 10:34:56;;;;;;;;;;;;;;;23.77;73.11;96667.47;606684;234;62744;-65
2022/08/18 10:37:40;;;;;;;;;;;;;;;23.77;73.16;96660.20;606752;234;66468;-65
2022/08/18 10:40:12;;;;;;;;;;;;;;;23.77;73.10;96656.73;606623;234;72020;-65
2022/08/18 10:42:47;;;;;;;;;;;;;;;23.78;73.29;96669.05;606611;234;63730;-64
2022/08/18 10:45:25;;;;;;;;;;;;;;;23.77;73.28;96664.78;606698;234;64192;-64
2022/08/18 10:47:58;;;;;;;;;;;;;;;23.78;73.18;96666.36;606619;234;67414;-64
2022/08/18 10:50:27;;;;;;;;;;;;;;;23.78;73.25;96666.36;603313;234;62700;-65
2022/08/18 10:53:04;;;;;;;;;;;;;;;23.77;73.40;96654.05;606350;233;66678;-63
2022/08/18 10:55:47;;;;;;;;;;;;;;;23.77;73.45;96641.42;608253;233;64625;-68
2022/08/18 10:58:22;;;;;;;;;;;;;;;23.77;73.46;96654.05;608109;233;47317;-67
2022/08/18 11:00:57;;;;;;;;;;;;;;;23.78;73.57;96652.95;608186;233;66637;-65
2022/08/18 11:03:30;;;;;;;;;;;;;;;23.79;72.67;96651.84;608153;232;64738;-65
2022/08/18 11:06:05;;;;;;;;;;;;;;;23.80;72.97;96659.61;608428;233;65025;-65
2022/08/18 11:08:34;;;;;;;;;;;;;;;23.81;67.05;96649.66;608515;233;67077;-64
2022/08/18 11:11:06;;;;;;;;;;;;;;;23.82;70.76;96649.38;608391;233;64681;-64
2022/08/18 11:13:52;;;;;;;;;;;;;;;23.82;72.67;96656.64;608496;233;63687;-65
2022/08/18 11:16:27;;;;;;;;;;;;;;;23.81;73.02;96652.34;608522;233;67149;-64
2022/08/18 11:18:59;;;;;;;;;;;;;;;23.81;72.97;96657.71;608211;233;64625;-64
2022/08/18 11:21:40;;;;;;;;;;;;;;;23.80;72.82;96650.77;607182;233;62523;-65
2022/08/18 11:24:09;;;;;;;;;;;;;;;23.81;72.90;96646.98;608517;233;66803;-69
2022/08/18 11:26:39;;;;;;;;;;;;;;;23.80;72.98;96648.88;608523;233;65490;-64
2022/08/18 11:29:23;;;;;;;;;;;;;;;23.81;73.32;96645.09;608506;233;65164;-64
2022/08/18 11:31:52;;;;;;;;;;;;;;;23.81;72.94;96655.03;608090;233;66798;-64
2022/08/18 11:34:21;;;;;;;;;;;;;;;23.82;72.92;96640.55;608473;233;66832;-64
2022/08/18 11:36:57;;;;;;;;;;;;;;;23.82;73.23;96635.17;608342;233;65020;-65
2022/08/18 11:39:24;;;;;;;;;;;;;;;23.81;72.75;96639.72;608100;233;64504;-65
2022/08/18 11:41:52;;;;;;;;;;;;;;;23.82;72.83;96645.91;608518;233;64509;-64
2022/08/18 11:44:23;;;;;;;;;;;;;;;23.82;72.97;96635.96;608479;233;63043;-64
2022/08/18 11:46:51;;;;;;;;;;;;;;;23.82;72.80;96630.59;608437;233;64648;-63
2022/08/18 11:49:20;;;;;;;;;;;;;;;23.82;70.17;96635.96;608434;233;66646;-65
2022/08/18 11:51:55;;;;;;;;;;;;;;;23.86;66.73;96628.10;608156;233;62696;-64
2022/08/18 11:54:24;;;;;;;;;;;;;;;23.88;68.65;96618.66;608225;232;67247;-65
2022/08/18 11:56:52;;;;;;;;;;;;;;;23.87;66.94;96616.27;608228;233;67386;-64
2022/08/18 11:59:35;;;;;;;;;;;;;;;23.88;71.44;96615.98;608447;233;62676;-64
2022/08/18 12:01:59;;;;;;;;;;;;;;;23.87;69.93;96625.13;608232;232;67437;-64
2022/08/18 12:04:32;;;;;;;;;;;;;;;23.87;71.81;96621.62;611282;232;66972;-66
2022/08/18 12:07:04;;;;;;;;;;;;;;;23.86;71.68;96610.11;611030;232;63782;-65
2022/08/18 12:09:37;;;;;;;;;;;;;;;23.87;66.64;96616.27;609626;232;67367;-65
2022/08/18 12:12:06;;;;;;;;;;;;;;;23.88;70.81;96618.66;611133;232;64790;-65
2022/08/18 12:14:35;;;;;;;;;;;;;;;23.88;68.31;96612.50;610935;232;62745;-65
2022/08/18 12:17:03;;;;;;;;;;;;;;;23.90;68.20;96615.69;610417;232;67208;-66
2022/08/18 12:19:31;;;;;;;;;;;;;;;23.90;68.11;96613.01;611291;232;65624;-66
2022/08/18 12:21:59;;;;;;;;;;;;;;;23.89;70.68;96600.66;611134;232;65231;-66
2022/08/18 12:24:26;;;;;;;;;;;;;;;;;;611350;232;67263;-66
2022/08/18 12:26:54;;;;;;;;;;;;;;;23.92;65.13;96606.22;611298;232;67003;-65
2022/08/18 12:29:21;;;;;;;;;;;;;;;23.92;68.98;96595.48;611201;232;62654;-64
2022/08/18 12:31:49;;;;;;;;;;;;;;;;;;610825;232;68103;-63
2022/08/18 12:34:18;;;;;;;;;;;;;;;23.90;70.30;96594.22;611873;232;64464;-63
2022/08/18 12:36:45;;;;;;;;;;;;;;;;;;611848;232;65198;-65
2022/08/18 12:39:12;;;;;;;;;;;;;;;23.93;66.87;96598.98;612016;232;65975;-64
2022/08/18 12:41:41;;;;;;;;;;;;;;;23.93;69.96;96588.25;611900;232;64604;-66
2022/08/18 12:44:08;;;;;;;;;;;;;;;23.92;70.39;96592.02;611811;232;63829;-65
2022/08/18 12:46:36;;;;;;;;;;;;;;;23.91;70.71;96582.38;611895;232;64728;-65
2022/08/18 12:49:04;;;;;;;;;;;;;;;23.91;70.59;96583.17;611843;232;64747;-65
2022/08/18 12:51:31;;;;;;;;;;;;;;;;;;611922;231;65111;-67
2022/08/18 12:53:58;;;;;;;;;;;;;;;23.91;70.91;96575.12;611868;232;63829;-69
2022/08/18 12:56:29;;;;;;;;;;;;;;;23.91;71.03;96583.17;611906;232;65199;-69
2022/08/18 12:58:58;;;;;;;;;;;;;;;23.92;70.96;96589.33;611905;232;65025;-67
2022/08/18 13:01:26;;;;;;;;;;;;;;;23.92;70.65;96581.28;611565;232;64546;-69
2022/08/18 13:03:55;;;;;;;;;;;;;;;23.92;70.87;96581.28;611820;232;66662;-67
2022/08/18 13:06:23;;;;;;;;;;;;;;;23.92;68.07;96575.91;611898;232;65003;-67
2022/08/18 13:08:51;;;;;;;;;;;;;;;23.92;70.23;96567.86;611933;232;64798;-67
2022/08/18 13:11:19;;;;;;;;;;;;;;;23.92;70.20;96575.91;611669;232;65327;-67
2022/08/18 13:13:47;;;;;;;;;;;;;;;23.91;70.31;96572.44;611864;232;65013;-68
2022/08/18 13:16:15;;;;;;;;;;;;;;;23.92;70.44;96579.38;611892;232;67200;-68
2022/08/18 13:18:42;;;;;;;;;;;;;;;23.91;70.35;96585.86;611897;232;64897;-68
2022/08/18 13:21:11;;;;;;;;;;;;;;;23.92;70.46;96586.64;611934;232;62824;-68
2022/08/18 13:23:40;;;;;;;;;;;;;;;23.92;70.53;96573.23;611842;232;67056;-67
2022/08/18 13:26:08;;;;;;;;;;;;;;;23.92;70.66;96581.28;611786;232;66870;-68
2022/08/18 13:28:36;;;;;;;;;;;;;;;23.92;70.54;96573.23;611968;232;64871;-68